Weather at Biaugunu Airport [CLOSED]

Public forecast

Using degrees Celsius for public forecast. Weather courtesy of forecast.io.

Closest aviation weather report (METAR) to Biaugunu Airport

Report is more than 6 hours old.

Closest report is Labasa Airport, 23.1 nm (42.7 km) W. Retrieved 2022/01/19 04:00 UTC (10 hours ago):

NFNL 190400Z 29006KT 9999 SCT028TCU SCT300 32/26 Q1003

Closest aviation forecast (TAF) to Biaugunu Airport

Closest forecast is Nausori International Airport, 117.2 nm (217.1 km) SW. Retrieved 2022/01/19 12:00 UTC (2 hours ago):

TAF NFNA 191110Z 1912/2012 09008KT 9999 SCT020 PROB40 TEMPO 1918/1920 5000 TSRA BKN015 FEW018CB PROB40 TEMPO 2002/2008 5000 TSRA BKN015 FEW018CB